createdAt,value
2022-09-07T00:01:09.482Z,3.90
2022-09-07T00:03:37.770Z,7.28
2022-09-07T00:06:08.037Z,5.97
2022-09-07T00:08:36.373Z,5.80
2022-09-07T00:11:07.300Z,3.90
2022-09-07T00:13:37.167Z,4.80
2022-09-07T00:16:13.302Z,4.93
2022-09-07T00:18:45.225Z,6.75
2022-09-07T00:21:16.892Z,5.10
2022-09-07T00:23:45.087Z,6.70
2022-09-07T00:26:18.535Z,5.18
2022-09-07T00:28:47.315Z,4.20
2022-09-07T00:31:18.526Z,4.70
2022-09-07T00:33:49.082Z,4.93
2022-09-07T00:36:18.334Z,4.32
2022-09-07T00:38:46.791Z,8.73
2022-09-07T00:41:16.036Z,5.78
2022-09-07T00:43:47.558Z,6.87
2022-09-07T00:46:21.575Z,5.07
2022-09-07T00:49:22.098Z,4.80
2022-09-07T00:51:57.971Z,4.97
2022-09-07T00:54:40.577Z,4.12
2022-09-07T00:57:09.020Z,6.95
2022-09-07T00:59:42.573Z,6.57
2022-09-07T01:02:12.386Z,5.07
2022-09-07T01:04:40.829Z,4.93
2022-09-07T01:07:09.076Z,5.00
2022-09-07T01:09:38.503Z,4.87
2022-09-07T01:12:06.765Z,9.00
2022-09-07T01:14:42.383Z,6.05
2022-09-07T01:17:17.467Z,5.68
2022-09-07T01:19:45.117Z,7.28
2022-09-07T01:22:40.757Z,4.70
2022-09-07T01:25:14.529Z,4.78
2022-09-07T01:27:52.315Z,6.15
2022-09-07T01:30:22.026Z,4.82
2022-09-07T01:33:07.913Z,4.60
2022-09-07T01:35:53.884Z,4.50
2022-09-07T01:38:28.463Z,6.78
2022-09-07T01:41:17.826Z,4.45
2022-09-07T01:44:02.113Z,9.63
2022-09-07T01:46:35.322Z,6.62
2022-09-07T01:49:28.337Z,4.72
2022-09-07T01:52:02.324Z,5.57
2022-09-07T01:55:03.363Z,12.82
2022-09-07T01:57:41.203Z,7.10
2022-09-07T02:00:12.852Z,4.40
2022-09-07T02:03:14.369Z,4.85
2022-09-07T02:05:51.683Z,4.30
2022-09-07T02:08:35.844Z,4.15
2022-09-07T02:11:18.269Z,5.78
2022-09-07T02:14:04.043Z,5.37
2022-09-07T02:16:34.927Z,10.10
2022-09-07T02:19:08.300Z,4.57
2022-09-07T02:21:41.465Z,4.95
2022-09-07T02:24:26.391Z,11.35
2022-09-07T02:26:56.055Z,6.53
2022-09-07T02:29:25.290Z,7.45
2022-09-07T02:31:55.699Z,5.75
2022-09-07T02:34:23.981Z,10.23
2022-09-07T02:36:53.794Z,6.12
2022-09-07T02:39:21.501Z,5.12
2022-09-07T02:41:49.125Z,4.55
2022-09-07T02:44:24.628Z,4.97
2022-09-07T02:47:14.569Z,11.20
2022-09-07T02:50:01.281Z,5.40
2022-09-07T02:52:47.037Z,5.32
2022-09-07T02:55:36.926Z,5.78
2022-09-07T02:58:28.239Z,5.00
2022-09-07T03:01:08.047Z,5.60
2022-09-07T03:04:03.624Z,5.50
2022-09-07T03:06:38.353Z,5.25
2022-09-07T03:09:11.493Z,4.20
2022-09-07T03:11:39.757Z,4.40
2022-09-07T03:14:20.817Z,4.50
2022-09-07T03:16:52.164Z,6.65
2022-09-07T03:19:20.087Z,4.07
2022-09-07T03:21:48.633Z,4.87
2022-09-07T03:24:16.398Z,4.60
2022-09-07T03:26:46.554Z,10.43
2022-09-07T03:29:15.740Z,4.57
2022-09-07T03:31:43.474Z,4.47
2022-09-07T03:34:11.691Z,4.30
2022-09-07T03:36:40.003Z,5.22
2022-09-07T03:39:08.338Z,5.15
2022-09-07T03:41:35.948Z,6.80
2022-09-07T03:44:05.445Z,7.45
2022-09-07T03:46:34.414Z,5.32
2022-09-07T03:49:02.226Z,7.95
2022-09-07T03:51:31.109Z,5.68
2022-09-07T03:54:00.456Z,4.43
2022-09-07T03:56:28.286Z,4.32
2022-09-07T03:58:56.433Z,4.85
2022-09-07T04:01:26.108Z,5.60
2022-09-07T04:04:01.782Z,6.45
2022-09-07T04:06:31.204Z,5.07
2022-09-07T04:09:07.784Z,7.32
2022-09-07T04:11:35.897Z,4.47
2022-09-07T04:14:04.151Z,5.87
2022-09-07T04:16:31.901Z,6.20
2022-09-07T04:19:00.207Z,7.25
2022-09-07T04:21:32.555Z,4.93
2022-09-07T04:24:00.794Z,8.98
2022-09-07T04:26:34.159Z,11.45
2022-09-07T04:29:02.997Z,6.22
2022-09-07T04:31:33.428Z,4.57
2022-09-07T04:34:01.812Z,8.25
2022-09-07T04:36:29.510Z,5.57
2022-09-07T04:39:00.443Z,7.20
2022-09-07T04:41:29.972Z,7.22
2022-09-07T04:44:00.419Z,6.25
2022-09-07T04:46:31.228Z,6.00
2022-09-07T04:49:01.289Z,5.78
2022-09-07T04:51:30.853Z,5.72
2022-09-07T04:54:00.750Z,12.48
2022-09-07T04:56:29.249Z,13.83
2022-09-07T04:58:57.159Z,19.77
2022-09-07T05:01:26.236Z,12.57
2022-09-07T05:03:54.411Z,18.10
2022-09-07T05:06:23.117Z,9.70
2022-09-07T05:08:52.748Z,6.10
2022-09-07T05:11:28.471Z,8.38
2022-09-07T05:14:01.275Z,4.10
2022-09-07T05:16:30.946Z,4.60
2022-09-07T05:19:01.736Z,8.88
2022-09-07T05:21:32.378Z,19.35
2022-09-07T05:24:01.203Z,30.08
2022-09-07T05:26:32.851Z,23.75
2022-09-07T05:31:54.921Z,19.20
2022-09-07T05:36:54.455Z,32.80
2022-09-07T05:39:22.173Z,14.13
2022-09-07T05:41:49.872Z,13.30
2022-09-07T05:47:05.819Z,10.65
2022-09-07T05:49:34.120Z,4.03
2022-09-07T05:52:01.777Z,4.43
2022-09-07T05:54:29.429Z,4.57
2022-09-07T05:56:57.409Z,3.55
2022-09-07T05:59:25.129Z,10.82
2022-09-07T06:01:53.005Z,4.20
2022-09-07T06:04:21.106Z,4.93
2022-09-07T06:07:17.642Z,9.85
2022-09-07T06:12:24.671Z,4.70
2022-09-07T06:14:52.592Z,7.72
2022-09-07T06:17:20.235Z,6.43
2022-09-07T06:19:48.012Z,5.75
2022-09-07T06:22:15.989Z,14.87
2022-09-07T06:24:43.700Z,5.25
2022-09-07T06:27:11.424Z,5.07
2022-09-07T06:29:39.462Z,7.55
2022-09-07T06:34:55.260Z,6.10
2022-09-07T06:37:22.945Z,3.40
2022-09-07T06:39:50.685Z,10.15
2022-09-07T06:42:18.645Z,5.57
2022-09-07T06:44:46.325Z,5.12
2022-09-07T06:47:14.011Z,5.00
2022-09-07T06:49:41.961Z,3.17
2022-09-07T06:52:09.691Z,7.57
2022-09-07T06:57:27.130Z,5.37
2022-09-07T06:59:55.602Z,5.60
2022-09-07T07:02:23.310Z,3.58
2022-09-07T07:04:51.336Z,4.68
2022-09-07T07:07:19.026Z,9.32
2022-09-07T07:09:46.799Z,3.90
2022-09-07T07:12:14.786Z,4.07
2022-09-07T07:14:45.007Z,5.07
2022-09-07T07:17:13.670Z,5.30
2022-09-07T07:19:41.784Z,7.75
2022-09-07T07:22:45.594Z,9.15
2022-09-07T07:24:57.409Z,5.30
2022-09-07T07:27:25.144Z,4.55
2022-09-07T07:29:53.896Z,4.45
2022-09-07T07:32:21.897Z,6.50
2022-09-07T07:34:49.569Z,7.12
2022-09-07T07:37:17.378Z,7.40
2022-09-07T07:42:34.046Z,7.40
2022-09-07T07:47:54.471Z,8.65
2022-09-07T07:50:30.947Z,9.45
2022-09-07T07:55:47.801Z,9.32
2022-09-07T07:58:15.532Z,7.18
2022-09-07T08:00:54.218Z,6.37
2022-09-07T08:03:24.757Z,6.87
2022-09-07T08:05:52.677Z,8.23
2022-09-07T08:08:21.097Z,9.65
2022-09-07T08:10:49.565Z,7.70
2022-09-07T08:13:17.897Z,7.97
2022-09-07T08:15:46.377Z,6.10
2022-09-07T08:18:16.373Z,6.47
2022-09-07T08:20:44.064Z,6.22
2022-09-07T08:23:11.955Z,7.30
2022-09-07T08:25:55.782Z,7.45
2022-09-07T08:28:24.680Z,5.72
2022-09-07T08:30:52.528Z,4.95
2022-09-07T08:33:20.571Z,5.55
2022-09-07T08:35:59.908Z,9.38
2022-09-07T08:38:30.565Z,5.53
2022-09-07T08:40:59.195Z,7.28
2022-09-07T08:43:38.084Z,5.20
2022-09-07T08:46:31.617Z,7.10
2022-09-07T08:49:03.220Z,5.50
2022-09-07T08:51:43.569Z,6.57
2022-09-07T08:54:13.816Z,6.20
2022-09-07T08:59:55.116Z,6.12
2022-09-07T09:02:27.210Z,4.28
2022-09-07T09:07:56.561Z,7.75
2022-09-07T09:10:35.972Z,5.47
2022-09-07T09:13:09.736Z,8.25
2022-09-07T09:15:52.375Z,7.37
2022-09-07T09:18:36.785Z,5.90
2022-09-07T09:21:07.991Z,10.20
2022-09-07T09:23:40.773Z,7.00
2022-09-07T09:26:11.549Z,6.22
2022-09-07T09:28:40.050Z,5.50
2022-09-07T09:31:16.988Z,5.72
2022-09-07T09:34:04.987Z,7.55
2022-09-07T09:36:42.025Z,13.98
2022-09-07T09:39:31.584Z,5.07
2022-09-07T09:42:25.406Z,4.75
2022-09-07T09:44:53.883Z,6.22
2022-09-07T09:47:31.281Z,4.90
2022-09-07T09:52:29.016Z,5.15
2022-09-07T09:53:06.268Z,9.05
2022-09-07T09:55:40.898Z,6.18
2022-09-07T10:01:36.081Z,6.30
2022-09-07T10:04:32.092Z,10.55
2022-09-07T10:07:20.053Z,5.62
2022-09-07T10:09:55.806Z,4.40
2022-09-07T10:12:52.665Z,6.07
2022-09-07T10:15:29.107Z,5.75
2022-09-07T10:17:58.358Z,5.70
2022-09-07T10:20:36.521Z,7.35
2022-09-07T10:23:06.678Z,10.30
2022-09-07T10:25:41.970Z,8.55
2022-09-07T10:28:15.640Z,5.62
2022-09-07T10:30:49.639Z,5.30
2022-09-07T10:33:40.607Z,7.20
2022-09-07T10:36:43.153Z,6.72
2022-09-07T10:39:18.574Z,9.05
2022-09-07T10:42:23.652Z,5.93
2022-09-07T10:45:09.911Z,8.25
2022-09-07T10:47:37.819Z,7.20
2022-09-07T10:50:32.401Z,6.68
2022-09-07T10:53:43.416Z,6.65
2022-09-07T10:56:25.907Z,8.38
2022-09-07T10:59:14.009Z,9.52
2022-09-07T11:01:53.856Z,12.63
2022-09-07T11:04:53.679Z,5.95
2022-09-07T11:07:28.728Z,7.53
2022-09-07T11:10:22.125Z,7.53
2022-09-07T11:12:51.987Z,7.07
2022-09-07T11:15:33.346Z,8.23
2022-09-07T11:18:12.973Z,6.78
2022-09-07T11:20:40.780Z,9.48
2022-09-07T11:23:29.171Z,7.00
2022-09-07T11:26:14.454Z,8.05
2022-09-07T11:32:24.737Z,7.03
2022-09-07T11:34:57.615Z,9.80
2022-09-07T11:37:41.756Z,7.15
2022-09-07T11:40:29.999Z,7.55
2022-09-07T11:43:13.041Z,10.07
2022-09-07T11:45:49.104Z,10.43
2022-09-07T11:48:30.477Z,9.88
2022-09-07T11:51:04.528Z,7.57
2022-09-07T11:53:43.138Z,10.10
2022-09-07T11:56:18.515Z,8.35
2022-09-07T11:59:04.004Z,12.23
2022-09-07T12:02:06.076Z,8.80
2022-09-07T12:05:01.291Z,7.53
2022-09-07T12:08:08.061Z,8.93
2022-09-07T12:10:46.504Z,7.43
2022-09-07T12:13:36.057Z,7.53
2022-09-07T12:16:06.865Z,9.60
2022-09-07T12:19:05.125Z,8.02
2022-09-07T12:21:45.736Z,8.90
2022-09-07T12:24:35.103Z,9.38
2022-09-07T12:27:22.302Z,8.50
2022-09-07T12:30:10.655Z,8.20
2022-09-07T12:32:55.830Z,9.07
2022-09-07T12:35:30.228Z,11.27
2022-09-07T12:37:59.831Z,11.32
2022-09-07T12:40:30.260Z,8.10
2022-09-07T12:43:13.255Z,8.10
2022-09-07T12:45:40.892Z,8.40
2022-09-07T12:48:17.954Z,8.75
2022-09-07T12:54:23.187Z,10.77
2022-09-07T13:00:11.814Z,9.05
2022-09-07T13:03:49.540Z,9.35
2022-09-07T13:07:01.810Z,8.68
2022-09-07T13:09:25.777Z,8.82
2022-09-07T13:11:53.891Z,9.68
2022-09-07T13:14:26.041Z,9.43
2022-09-07T13:17:31.367Z,8.15
2022-09-07T13:19:59.491Z,7.32
2022-09-07T13:22:30.261Z,14.05
2022-09-07T13:25:20.710Z,8.75
2022-09-07T13:27:58.477Z,8.63
2022-09-07T13:30:29.236Z,10.68
2022-09-07T13:33:25.215Z,10.35
2022-09-07T13:36:01.165Z,7.37
2022-09-07T13:38:30.963Z,7.90
2022-09-07T13:41:12.693Z,8.23
2022-09-07T13:43:45.846Z,8.32
2022-09-07T13:46:35.097Z,8.70
2022-09-07T13:49:28.412Z,16.58
2022-09-07T13:52:06.481Z,10.73
2022-09-07T13:54:50.924Z,7.57
2022-09-07T13:57:32.674Z,7.72
2022-09-07T14:00:00.860Z,14.23
2022-09-07T14:02:36.134Z,14.25
2022-09-07T14:05:06.590Z,8.98
2022-09-07T14:07:34.166Z,7.20
2022-09-07T14:10:04.810Z,7.57
2022-09-07T14:12:42.561Z,10.70
2022-09-07T14:15:14.530Z,8.88
2022-09-07T14:17:43.897Z,8.02
2022-09-07T14:20:16.615Z,7.65
2022-09-07T14:22:45.474Z,8.43
2022-09-07T14:25:18.785Z,8.65
2022-09-07T14:27:48.114Z,9.45
2022-09-07T14:30:36.446Z,7.80
2022-09-07T14:33:17.218Z,7.62
2022-09-07T14:35:44.996Z,9.70
2022-09-07T14:41:16.138Z,8.27
2022-09-07T14:43:57.933Z,7.37
2022-09-07T14:46:33.088Z,11.32
2022-09-07T14:49:22.140Z,8.18
2022-09-07T14:51:50.505Z,8.40
2022-09-07T14:54:31.334Z,7.50
2022-09-07T14:57:02.557Z,7.57
2022-09-07T14:59:43.033Z,10.38
2022-09-07T15:02:20.072Z,9.95
2022-09-07T15:05:08.843Z,9.48
2022-09-07T15:07:41.687Z,11.98
2022-09-07T15:10:23.708Z,10.90
2022-09-07T15:12:54.340Z,10.18
2022-09-07T15:15:37.806Z,9.75
2022-09-07T15:18:44.243Z,10.25
2022-09-07T15:21:12.219Z,8.13
2022-09-07T15:23:39.895Z,11.73
2022-09-07T15:27:02.048Z,8.32
2022-09-07T15:29:14.451Z,10.55
2022-09-07T15:31:49.770Z,9.20
2022-09-07T15:36:52.229Z,8.73
2022-09-07T15:39:27.592Z,8.77
2022-09-07T15:41:56.745Z,7.40
2022-09-07T15:44:26.505Z,10.25
2022-09-07T15:49:50.067Z,17.17
2022-09-07T15:52:19.080Z,20.05
2022-09-07T15:54:46.736Z,17.60
2022-09-07T16:00:02.785Z,17.48
2022-09-07T16:05:30.990Z,14.93
2022-09-07T16:11:05.390Z,22.20
2022-09-07T16:13:33.488Z,14.93
2022-09-07T16:16:04.783Z,16.40
2022-09-07T16:18:34.024Z,15.88
2022-09-07T16:21:26.264Z,15.20
2022-09-07T16:23:54.510Z,28.70
2022-09-07T16:26:25.214Z,19.23
2022-09-07T16:28:53.858Z,9.55
2022-09-07T16:31:24.343Z,30.42
2022-09-07T16:33:53.231Z,18.75
2022-09-07T16:36:24.678Z,17.42
2022-09-07T16:38:57.089Z,22.33
2022-09-07T16:41:31.093Z,19.58
2022-09-07T16:43:59.458Z,24.02
2022-09-07T16:46:30.666Z,13.48
2022-09-07T16:48:58.341Z,14.73
2022-09-07T16:51:26.368Z,13.38
2022-09-07T16:53:56.241Z,20.65
2022-09-07T16:56:26.969Z,26.15
2022-09-07T16:58:57.689Z,20.90
2022-09-07T17:01:34.557Z,19.00
2022-09-07T17:04:06.809Z,30.20
2022-09-07T17:06:39.015Z,22.48
2022-09-07T17:09:07.525Z,21.15
2022-09-07T17:11:36.682Z,25.83
2022-09-07T17:14:06.676Z,12.73
2022-09-07T17:16:38.483Z,13.85
2022-09-07T17:21:57.615Z,18.50
2022-09-07T17:24:25.385Z,17.10
2022-09-07T17:26:52.905Z,18.20
2022-09-07T17:29:21.108Z,14.57
2022-09-07T17:34:36.684Z,13.68
2022-09-07T17:37:04.317Z,15.52
2022-09-07T17:39:32.074Z,10.65
2022-09-07T17:42:00.924Z,24.42
2022-09-07T17:44:33.231Z,11.45
2022-09-07T17:47:03.901Z,13.15
2022-09-07T17:49:31.511Z,12.82
2022-09-07T17:52:01.025Z,13.62
2022-09-07T17:54:30.035Z,15.93
2022-09-07T17:56:57.558Z,15.60
2022-09-07T18:02:13.943Z,12.98
2022-09-07T18:04:42.723Z,11.77
2022-09-07T18:07:10.355Z,12.77
2022-09-07T18:09:39.145Z,11.52
2022-09-07T18:12:07.301Z,12.95
2022-09-07T18:14:34.968Z,14.32
2022-09-07T18:17:05.379Z,12.02
2022-09-07T18:19:33.387Z,12.00
2022-09-07T18:22:01.447Z,10.63
2022-09-07T18:24:30.813Z,9.85
2022-09-07T18:27:01.738Z,9.88
2022-09-07T18:29:33.007Z,10.02
2022-09-07T18:32:08.272Z,10.73
2022-09-07T18:34:38.573Z,11.27
2022-09-07T18:37:07.065Z,10.93
2022-09-07T18:39:37.508Z,10.40
2022-09-07T18:42:05.382Z,9.63
2022-09-07T18:47:28.068Z,10.13
2022-09-07T18:49:57.119Z,10.32
2022-09-07T18:55:13.135Z,17.23
2022-09-07T18:57:40.831Z,11.23
2022-09-07T19:00:11.232Z,14.73
2022-09-07T19:02:41.979Z,13.45
2022-09-07T19:07:57.536Z,12.60
2022-09-07T19:10:25.192Z,12.70
2022-09-07T19:12:53.042Z,12.57
2022-09-07T19:15:21.061Z,13.98
2022-09-07T19:17:48.731Z,11.50
2022-09-07T19:20:18.718Z,11.87
2022-09-07T19:22:49.785Z,11.52
2022-09-07T19:25:19.341Z,12.63
2022-09-07T19:27:47.289Z,11.88
2022-09-07T19:30:17.362Z,11.10
2022-09-07T19:32:44.973Z,11.73
2022-09-07T19:35:12.855Z,12.95
2022-09-07T19:37:40.525Z,11.00
2022-09-07T19:40:11.983Z,11.77
2022-09-07T19:42:41.530Z,15.32
2022-09-07T19:45:09.626Z,10.95
2022-09-07T19:47:37.200Z,11.95
2022-09-07T19:50:05.977Z,12.50
2022-09-07T19:52:34.009Z,11.27
2022-09-07T19:55:03.897Z,11.80
2022-09-07T19:57:33.060Z,10.60
2022-09-07T20:00:01.395Z,10.50
2022-09-07T20:02:28.907Z,9.82
2022-09-07T20:04:56.768Z,10.57
2022-09-07T20:07:24.452Z,9.65
2022-09-07T20:09:53.122Z,10.70
2022-09-07T20:12:20.938Z,13.60
2022-09-07T20:14:48.634Z,12.07
2022-09-07T20:17:16.179Z,10.77
2022-09-07T20:19:45.487Z,10.55
2022-09-07T20:22:13.188Z,9.90
2022-09-07T20:24:40.875Z,10.35
2022-09-07T20:27:08.764Z,10.07
2022-09-07T20:29:36.519Z,12.95
2022-09-07T20:32:04.277Z,11.48
2022-09-07T20:34:32.904Z,10.02
2022-09-07T20:37:01.117Z,10.93
2022-09-07T20:39:28.714Z,9.50
2022-09-07T20:41:56.678Z,8.85
2022-09-07T20:44:24.282Z,9.40
2022-09-07T20:46:51.933Z,9.00
2022-09-07T20:49:19.812Z,11.18
2022-09-07T20:51:47.377Z,9.02
2022-09-07T20:54:15.067Z,8.90
2022-09-07T20:56:42.888Z,10.43
2022-09-07T20:59:12.136Z,9.85
2022-09-07T21:01:39.783Z,10.85
2022-09-07T21:04:07.783Z,8.77
2022-09-07T21:06:35.436Z,9.63
2022-09-07T21:09:03.509Z,9.38
2022-09-07T21:11:34.398Z,12.00
2022-09-07T21:16:37.410Z,10.85
2022-09-07T21:19:07.339Z,8.55
2022-09-07T21:21:38.888Z,8.43
2022-09-07T21:24:15.223Z,8.40
2022-09-07T21:26:43.085Z,11.70
2022-09-07T21:29:17.146Z,10.30
2022-09-07T21:31:45.542Z,8.10
2022-09-07T21:34:13.759Z,9.80
2022-09-07T21:36:41.338Z,9.93
2022-09-07T21:39:13.724Z,8.38
2022-09-07T21:41:43.308Z,7.95
2022-09-07T21:44:13.494Z,7.70
2022-09-07T21:46:41.971Z,8.05
2022-09-07T21:49:09.701Z,8.27
2022-09-07T21:51:38.150Z,7.65
2022-09-07T21:54:06.161Z,9.10
2022-09-07T21:56:33.838Z,8.90
2022-09-07T21:59:02.621Z,7.75
2022-09-07T22:01:31.309Z,7.68
2022-09-07T22:04:02.401Z,9.63
2022-09-07T22:06:32.439Z,9.77
2022-09-07T22:11:29.731Z,8.05
2022-09-07T22:14:00.301Z,11.80
2022-09-07T22:16:28.479Z,8.05
2022-09-07T22:18:56.329Z,8.85
2022-09-07T22:21:26.901Z,7.43
2022-09-07T22:23:57.956Z,9.85
2022-09-07T22:28:54.747Z,7.70
2022-09-07T22:31:28.985Z,8.80
2022-09-07T22:33:58.481Z,7.40
2022-09-07T22:36:32.501Z,7.47
2022-09-07T22:39:03.298Z,6.80
2022-09-07T22:41:33.541Z,8.45
2022-09-07T22:44:01.978Z,6.60
2022-09-07T22:46:31.104Z,7.12
2022-09-07T22:48:59.460Z,8.15
2022-09-07T22:51:27.652Z,7.00
2022-09-07T22:53:55.997Z,9.75
2022-09-07T22:56:26.877Z,6.57
2022-09-07T22:59:00.158Z,7.30
2022-09-07T23:01:30.410Z,10.50
2022-09-07T23:03:59.218Z,11.80
2022-09-07T23:06:31.015Z,7.85
2022-09-07T23:09:00.851Z,7.40
2022-09-07T23:11:28.812Z,6.18
2022-09-07T23:13:58.598Z,9.10
2022-09-07T23:16:28.047Z,8.65
2022-09-07T23:18:57.978Z,9.68
2022-09-07T23:21:27.308Z,7.15
2022-09-07T23:23:57.530Z,9.10
2022-09-07T23:26:27.724Z,9.55
2022-09-07T23:29:00.845Z,6.75
2022-09-07T23:31:29.959Z,6.65
2022-09-07T23:33:58.363Z,7.80
2022-09-07T23:36:26.712Z,10.38
2022-09-07T23:38:56.276Z,10.27
2022-09-07T23:41:25.132Z,7.82
2022-09-07T23:43:54.074Z,9.15
2022-09-07T23:46:22.579Z,8.95
2022-09-07T23:48:50.838Z,11.27
2022-09-07T23:51:23.438Z,8.32
2022-09-07T23:53:53.039Z,8.43
2022-09-07T23:56:21.866Z,6.28
2022-09-07T23:58:49.486Z,7.72
